METAR rapporten vliegvelden

   
EBAW - Antwerp
Gewijzigd: 11-07-2020 05:50
Licht bewolkt  
Licht bewolkt  
   Wind: Zuiden 3.7 km/h
Wind: Zuiden 3.7 km/h
Temperatuur: 9°C
Dauwpunt: 8°C
Vochtigheid: 94%
Barometer: 1023 hPa
Bewolking: Licht bewolkt
Zicht: meer dan 10 km
Bewolking: Licht bewolkt 2900 ft
EBAW 110350Z AUTO 17002KT 9999 // FEW029/// 09/08 Q1023
EBLG - Li├Ęge
Gewijzigd: 11-07-2020 05:50
Gedeeltelijk bewolkt  
Gedeeltelijk bewolkt  
   Wind: WZW 3.7 km/h
Wind: WZW 3.7 km/h
Temperatuur: 10°C
Dauwpunt: 8°C
Vochtigheid: 88%
Barometer: 1023 hPa
Bewolking: Gedeeltelijk bewolkt
Zicht: meer dan 10 km
Bewolking: Gedeeltelijk bewolkt 2800 ft
EBLG 110350Z 25002KT 9999 SCT028 10/08 Q1023 NOSIG
EBCV - Mons/Bergen
Gewijzigd: 11-07-2020 05:25
Helder  
Helder  
   Wind: varieert 1.9 km/h
Wind: varieert 1.9 km/h
Temperatuur: 8°C
Dauwpunt: 8°C
Vochtigheid: 100%
Barometer: 1023 hPa
Bewolking: Helder
Zicht: meer dan 10 km
Bewolking: Helder
EBCV 110325Z AUTO VRB01KT 9999 NCD 08/08 Q1023 BLU
EHBK - Maastricht
Gewijzigd: 11-07-2020 05:25
Grotendeels bewolkt  
Grotendeels bewolkt  
   Wind: varieert 3.7 km/h
Wind: varieert 3.7 km/h
Temperatuur: 9°C
Dauwpunt: 8°C
Vochtigheid: 94%
Barometer: 1022 hPa
Bewolking: Grotendeels bewolkt
Zicht: meer dan 10 km
Bewolking: Gedeeltelijk bewolkt 3100 ft,
Grotendeels bewolkt 3500 ft
EHBK 110325Z AUTO VRB02KT 9999 SCT031 BKN035 09/08 Q1022
ELLX - Luxemburg
Gewijzigd: 11-07-2020 05:50
Helder  
Helder  
   Wind: Noorden 11.1 km/h
Wind: Noorden 11.1 km/h
Temperatuur: 10°C
Voelt als: 8°C
Dauwpunt: 8°C
Vochtigheid: 88%
Barometer: 1022 hPa
Zicht: meer dan 10 km
Bewolking: Helder
ELLX 110350Z 01006KT CAVOK 10/08 Q1022 NOSIG
EBOS - Oostende
Gewijzigd: 11-07-2020 05:50
Gedeeltelijk bewolkt  
Gedeeltelijk bewolkt  
   Wind: NW 11.1 km/h
Wind: NW 11.1 km/h
Temperatuur: 13°C
Dauwpunt: 11°C
Vochtigheid: 88%
Barometer: 1023 hPa
Bewolking: Gedeeltelijk bewolkt
Zicht: meer dan 10 km
Bewolking: Gedeeltelijk bewolkt 2500 ft
EBOS 110350Z 32006KT 9999 SCT025 13/11 Q1023 NOSIG

Script ontwikkeld door  Saratoga-weather.org Aangepast voor de template door  Weerstation Leuven